Schedule Details


Flight Number: CTN661
Departure: Cilipi (LDDU) at 06:15
Arrival: Franjo Tudman (LDZA) at 07:10
Route: MADOS L187 VRANA UL187 KOMAR L187 TEBLI

Weather Information
LDDU 290230Z 19007KT 160V260 9999 BKN040 13/09 Q1009
LDZA 290230Z 10003KT 090V170 9999 FEW010 01/00 Q1009 NOSIG
Schedule Frequency

Route Map